Aérodrome :
LOGIN :

S'inscrire | Disclaimer

   EN    FR    IT 

 










Légende :    VFR   VFR Marginal   IFR   IFR Intensif   IFR Très Intensif
Visi : 
Plafond : 
>= 8 km
>= 3000ft
5 à 8 km
1000 à 3000 ft
1500m à 5 km
500 à 1000 ft
800 à 1500m
200 à 500 ft
< 800m
< 200 ft
Symboles :   Orages  Brouillard  Fortes neiges  Fortes précipitations  Vent > 20 kt
SIGMETs :   Divers  Orages  Givrage  Turbulence  Onde Orograph.  Cendres Volcan.






- Altitude de l'aérodrome : 340 ft
- Code IATA : BZI


LTBF - Balikesir

DERNIER METAR :
  • 200850Z 35012KT 9999 -SHRA SCT013 SCT035 BKN100 05/03 Q1034 NOSIG

METARs EXPIRÉS :
  • 200750Z 34008KT 310V010 9999 -SHRA SCT015 SCT035 BKN100 04/03 Q1034 NOSIG
  • 200650Z 35009KT 320V020 9999 -SHRA SCT013 SCT035 BKN100 04/03 Q1033 NOSIG

TAF TAF LTBF
Valide du 20 à 09h jusqu'au 20 à 18h UTC


200740Z 2009/2018 01008KT 9999 -SHRA SCT015 SCT035 BKN100



MET'MAP, la Météo Aéronautique d'un coup d'oeil ! - Copyright ORBIFLY Décembre 2007 - Disclaimer

ORBIFLY MET'MAP TEAM :

Programmation & Développement : Alexandra Zaïnal
Sur une idée originale de : Baudouin d'Aumeries
Assistance à la programmation : Marc-Olivier Méhu
Soutien technique & logistique : Manuel Goepfert

Contact : metmap@orbifly.com




SOURCES & CREDITS :

   NOAA